sensor_id;sensor_type;location;lat;lon;timestamp;pressure;altitude;pressure_sealevel;temperature;humidity
12172;BME280;6149;52.418;13.668;2023-05-23T00:00:00;100739.06;;;14.91;72.76
12172;BME280;6149;52.418;13.668;2023-05-23T00:02:29;100738.41;;;14.88;72.82
12172;BME280;6149;52.418;13.668;2023-05-23T00:04:56;100726.91;;;14.87;72.81
12172;BME280;6149;52.418;13.668;2023-05-23T00:07:23;100728.94;;;14.84;73.05
12172;BME280;6149;52.418;13.668;2023-05-23T00:09:50;100725.53;;;14.82;72.94
12172;BME280;6149;52.418;13.668;2023-05-23T00:12:20;100731.06;;;14.79;73.84
12172;BME280;6149;52.418;13.668;2023-05-23T00:14:49;100734.78;;;14.76;74.80
12172;BME280;6149;52.418;13.668;2023-05-23T00:17:19;100739.47;;;14.73;75.41
12172;BME280;6149;52.418;13.668;2023-05-23T00:19:50;100740.63;;;14.68;75.59
12172;BME280;6149;52.418;13.668;2023-05-23T00:22:21;100739.69;;;14.69;75.47
12172;BME280;6149;52.418;13.668;2023-05-23T00:24:48;100742.34;;;14.69;75.40
12172;BME280;6149;52.418;13.668;2023-05-23T00:27:20;100731.69;;;14.69;75.28
12172;BME280;6149;52.418;13.668;2023-05-23T00:29:48;100729.03;;;14.69;75.25
12172;BME280;6149;52.418;13.668;2023-05-23T00:32:19;100740.75;;;14.67;75.09
12172;BME280;6149;52.418;13.668;2023-05-23T00:34:45;100731.25;;;14.63;75.23
12172;BME280;6149;52.418;13.668;2023-05-23T00:37:15;100729.66;;;14.60;75.56
12172;BME280;6149;52.418;13.668;2023-05-23T00:39:43;100719.31;;;14.56;75.87
12172;BME280;6149;52.418;13.668;2023-05-23T00:42:11;100710.88;;;14.49;75.75
12172;BME280;6149;52.418;13.668;2023-05-23T00:44:38;100718.47;;;14.43;75.42
12172;BME280;6149;52.418;13.668;2023-05-23T00:47:06;100720.44;;;14.39;75.55
12172;BME280;6149;52.418;13.668;2023-05-23T00:49:33;100716.47;;;14.32;76.78
12172;BME280;6149;52.418;13.668;2023-05-23T00:52:02;100709.97;;;14.23;76.52
12172;BME280;6149;52.418;13.668;2023-05-23T00:54:29;100703.13;;;14.19;76.22
12172;BME280;6149;52.418;13.668;2023-05-23T00:57:00;100698.13;;;14.15;76.59
12172;BME280;6149;52.418;13.668;2023-05-23T00:59:28;100696.50;;;14.12;76.78
12172;BME280;6149;52.418;13.668;2023-05-23T01:01:59;100703.00;;;14.08;76.47
12172;BME280;6149;52.418;13.668;2023-05-23T01:04:27;100703.00;;;14.08;77.07
12172;BME280;6149;52.418;13.668;2023-05-23T01:06:54;100696.00;;;14.07;77.11
12172;BME280;6149;52.418;13.668;2023-05-23T01:09:22;100695.88;;;14.09;76.82
12172;BME280;6149;52.418;13.668;2023-05-23T01:12:00;100686.22;;;14.08;76.47
12172;BME280;6149;52.418;13.668;2023-05-23T01:14:38;100680.03;;;14.07;77.08
12172;BME280;6149;52.418;13.668;2023-05-23T01:17:15;100693.34;;;14.07;77.90
12172;BME280;6149;52.418;13.668;2023-05-23T01:19:53;100682.59;;;14.09;78.36
12172;BME280;6149;52.418;13.668;2023-05-23T01:22:37;100682.59;;;14.09;78.42
12172;BME280;6149;52.418;13.668;2023-05-23T01:25:27;100674.53;;;14.10;78.19
12172;BME280;6149;52.418;13.668;2023-05-23T01:28:07;100672.47;;;14.14;77.40
12172;BME280;6149;52.418;13.668;2023-05-23T01:30:39;100671.31;;;14.18;75.48
12172;BME280;6149;52.418;13.668;2023-05-23T01:33:06;100664.75;;;14.23;77.17
12172;BME280;6149;52.418;13.668;2023-05-23T01:35:34;100667.09;;;14.28;77.16
12172;BME280;6149;52.418;13.668;2023-05-23T01:38:02;100665.19;;;14.30;75.86
12172;BME280;6149;52.418;13.668;2023-05-23T01:40:28;100668.50;;;14.33;75.97
12172;BME280;6149;52.418;13.668;2023-05-23T01:42:57;100665.53;;;14.38;75.27
12172;BME280;6149;52.418;13.668;2023-05-23T01:45:25;100661.75;;;14.42;76.14
12172;BME280;6149;52.418;13.668;2023-05-23T01:47:53;100664.19;;;14.45;75.68
12172;BME280;6149;52.418;13.668;2023-05-23T01:50:22;100664.81;;;14.49;75.34
12172;BME280;6149;52.418;13.668;2023-05-23T01:52:52;100664.59;;;14.52;75.47
12172;BME280;6149;52.418;13.668;2023-05-23T01:55:22;100652.03;;;14.54;75.21
12172;BME280;6149;52.418;13.668;2023-05-23T01:57:54;100650.13;;;14.56;76.03
12172;BME280;6149;52.418;13.668;2023-05-23T02:00:23;100655.25;;;14.59;74.85
12172;BME280;6149;52.418;13.668;2023-05-23T02:02:51;100654.19;;;14.61;73.96
12172;BME280;6149;52.418;13.668;2023-05-23T02:05:19;100646.09;;;14.63;73.42
12172;BME280;6149;52.418;13.668;2023-05-23T02:07:45;100647.78;;;14.64;73.51
12172;BME280;6149;52.418;13.668;2023-05-23T02:10:15;100650.03;;;14.70;74.46
12172;BME280;6149;52.418;13.668;2023-05-23T02:12:41;100648.22;;;14.70;72.62
12172;BME280;6149;52.418;13.668;2023-05-23T02:15:08;100649.72;;;14.75;71.91
12172;BME280;6149;52.418;13.668;2023-05-23T02:17:39;100650.34;;;14.78;72.74
12172;BME280;6149;52.418;13.668;2023-05-23T02:20:08;100646.75;;;14.79;73.24
12172;BME280;6149;52.418;13.668;2023-05-23T02:22:35;100642.25;;;14.80;72.77
12172;BME280;6149;52.418;13.668;2023-05-23T02:25:03;100645.69;;;14.82;72.79
12172;BME280;6149;52.418;13.668;2023-05-23T02:27:31;100647.28;;;14.84;70.23
12172;BME280;6149;52.418;13.668;2023-05-23T02:29:58;100650.66;;;14.86;71.86
12172;BME280;6149;52.418;13.668;2023-05-23T02:32:24;100655.88;;;14.88;73.03
12172;BME280;6149;52.418;13.668;2023-05-23T02:34:55;100646.06;;;14.88;73.41
12172;BME280;6149;52.418;13.668;2023-05-23T02:37:22;100660.22;;;14.89;73.28
12172;BME280;6149;52.418;13.668;2023-05-23T02:39:50;100646.91;;;14.89;72.96
12172;BME280;6149;52.418;13.668;2023-05-23T02:42:16;100646.91;;;14.89;72.42
12172;BME280;6149;52.418;13.668;2023-05-23T02:44:44;100635.41;;;14.88;72.26
12172;BME280;6149;52.418;13.668;2023-05-23T02:47:11;100633.72;;;14.87;71.06
12172;BME280;6149;52.418;13.668;2023-05-23T02:49:37;100633.81;;;14.86;71.32
12172;BME280;6149;52.418;13.668;2023-05-23T02:52:05;100632.88;;;14.87;71.36
12172;BME280;6149;52.418;13.668;2023-05-23T02:54:32;100635.41;;;14.88;71.48
12172;BME280;6149;52.418;13.668;2023-05-23T02:56:59;100634.66;;;14.86;72.74
12172;BME280;6149;52.418;13.668;2023-05-23T02:59:27;100631.06;;;14.87;73.13
12172;BME280;6149;52.418;13.668;2023-05-23T03:01:55;100635.41;;;14.88;71.89
12172;BME280;6149;52.418;13.668;2023-05-23T03:04:22;100635.41;;;14.88;72.23
12172;BME280;6149;52.418;13.668;2023-05-23T03:06:49;100628.28;;;14.89;72.84
12172;BME280;6149;52.418;13.668;2023-05-23T03:09:19;100630.09;;;14.88;72.36
12172;BME280;6149;52.418;13.668;2023-05-23T03:11:46;100631.16;;;14.86;72.75
12172;BME280;6149;52.418;13.668;2023-05-23T03:14:13;100629.34;;;14.86;71.75
12172;BME280;6149;52.418;13.668;2023-05-23T03:16:40;100628.38;;;14.87;71.66
12172;BME280;6149;52.418;13.668;2023-05-23T03:19:08;100629.13;;;14.89;72.27
12172;BME280;6149;52.418;13.668;2023-05-23T03:21:35;100629.25;;;14.88;72.28
12172;BME280;6149;52.418;13.668;2023-05-23T03:24:02;100631.78;;;14.89;72.60
12172;BME280;6149;52.418;13.668;2023-05-23T03:26:30;100636.16;;;14.90;72.91
12172;BME280;6149;52.418;13.668;2023-05-23T03:28:57;100637.75;;;14.93;73.88
12172;BME280;6149;52.418;13.668;2023-05-23T03:31:23;100643.94;;;14.93;74.17
12172;BME280;6149;52.418;13.668;2023-05-23T03:33:52;100654.47;;;14.95;74.41
12172;BME280;6149;52.418;13.668;2023-05-23T03:36:20;100654.38;;;14.96;74.61
12172;BME280;6149;52.418;13.668;2023-05-23T03:38:51;100645.44;;;14.97;74.64
12172;BME280;6149;52.418;13.668;2023-05-23T03:41:19;100651.50;;;14.99;74.60
12172;BME280;6149;52.418;13.668;2023-05-23T03:43:50;100643.50;;;14.99;74.63
12172;BME280;6149;52.418;13.668;2023-05-23T03:46:17;100638.94;;;15.01;75.12
12172;BME280;6149;52.418;13.668;2023-05-23T03:48:49;100634.44;;;15.02;75.65
12172;BME280;6149;52.418;13.668;2023-05-23T03:51:16;100643.19;;;15.04;75.91
12172;BME280;6149;52.418;13.668;2023-05-23T03:53:45;100636.91;;;15.05;76.61
12172;BME280;6149;52.418;13.668;2023-05-23T03:56:11;100635.94;;;15.06;77.80
12172;BME280;6149;52.418;13.668;2023-05-23T03:58:38;100636.78;;;15.07;78.52
12172;BME280;6149;52.418;13.668;2023-05-23T04:01:05;100629.66;;;15.07;78.34
12172;BME280;6149;52.418;13.668;2023-05-23T04:03:33;100626.88;;;15.09;79.03
12172;BME280;6149;52.418;13.668;2023-05-23T04:06:00;100622.28;;;15.11;79.31
12172;BME280;6149;52.418;13.668;2023-05-23T04:08:28;100628.38;;;15.13;79.06
12172;BME280;6149;52.418;13.668;2023-05-23T04:10:58;100627.41;;;15.14;78.64
12172;BME280;6149;52.418;13.668;2023-05-23T04:13:27;100616.66;;;15.15;77.53
12172;BME280;6149;52.418;13.668;2023-05-23T04:15:55;100622.59;;;15.19;76.17
12172;BME280;6149;52.418;13.668;2023-05-23T04:18:27;100614.50;;;15.20;74.87
12172;BME280;6149;52.418;13.668;2023-05-23T04:20:54;100606.16;;;15.25;74.21
12172;BME280;6149;52.418;13.668;2023-05-23T04:23:22;100609.06;;;15.22;74.98
12172;BME280;6149;52.418;13.668;2023-05-23T04:25:50;100616.91;;;15.23;74.82
12172;BME280;6149;52.418;13.668;2023-05-23T04:28:16;100626.72;;;15.23;75.21
12172;BME280;6149;52.418;13.668;2023-05-23T04:30:45;100636.41;;;15.24;76.34
12172;BME280;6149;52.418;13.668;2023-05-23T04:33:17;100636.53;;;15.22;74.32
12172;BME280;6149;52.418;13.668;2023-05-23T04:35:47;100633.03;;;15.22;73.91
12172;BME280;6149;52.418;13.668;2023-05-23T04:38:18;100633.75;;;15.24;74.29
12172;BME280;6149;52.418;13.668;2023-05-23T04:40:49;100633.66;;;15.25;75.25
12172;BME280;6149;52.418;13.668;2023-05-23T04:43:20;100625.53;;;15.27;75.25
12172;BME280;6149;52.418;13.668;2023-05-23T04:45:46;100623.84;;;15.26;76.72
12172;BME280;6149;52.418;13.668;2023-05-23T04:48:20;100626.50;;;15.26;76.68
12172;BME280;6149;52.418;13.668;2023-05-23T04:50:59;100632.78;;;15.25;78.07
12172;BME280;6149;52.418;13.668;2023-05-23T04:53:27;100628.44;;;15.24;78.16
12172;BME280;6149;52.418;13.668;2023-05-23T04:55:53;100625.88;;;15.22;79.50
12172;BME280;6149;52.418;13.668;2023-05-23T04:58:22;100624.06;;;15.23;79.44
12172;BME280;6149;52.418;13.668;2023-05-23T05:00:50;100611.47;;;15.25;79.50
12172;BME280;6149;52.418;13.668;2023-05-23T05:03:17;100614.03;;;15.26;79.54
12172;BME280;6149;52.418;13.668;2023-05-23T05:05:51;100616.69;;;15.26;79.17
12172;BME280;6149;52.418;13.668;2023-05-23T05:08:20;100615.84;;;15.26;78.58
12172;BME280;6149;52.418;13.668;2023-05-23T05:10:48;100605.94;;;15.28;79.90
12172;BME280;6149;52.418;13.668;2023-05-23T05:13:15;100608.59;;;15.28;80.17
12172;BME280;6149;52.418;13.668;2023-05-23T05:15:42;100622.13;;;15.25;80.18
12172;BME280;6149;52.418;13.668;2023-05-23T05:18:09;100623.09;;;15.24;79.86
12172;BME280;6149;52.418;13.668;2023-05-23T05:20:36;100617.88;;;15.22;79.90
12172;BME280;6149;52.418;13.668;2023-05-23T05:23:04;100626.72;;;15.23;81.32
12172;BME280;6149;52.418;13.668;2023-05-23T05:25:32;100624.91;;;15.23;83.75
12172;BME280;6149;52.418;13.668;2023-05-23T05:28:01;100622.38;;;15.22;86.79
12172;BME280;6149;52.418;13.668;2023-05-23T05:30:30;100619.72;;;15.22;91.14
12172;BME280;6149;52.418;13.668;2023-05-23T05:32:57;100615.47;;;15.19;92.39
12172;BME280;6149;52.418;13.668;2023-05-23T05:35:29;100618.13;;;15.19;95.69
12172;BME280;6149;52.418;13.668;2023-05-23T05:37:56;100615.69;;;15.16;94.84
12172;BME280;6149;52.418;13.668;2023-05-23T05:40:24;100615.56;;;15.18;95.41
12172;BME280;6149;52.418;13.668;2023-05-23T05:42:52;100620.78;;;15.19;96.40
12172;BME280;6149;52.418;13.668;2023-05-23T05:45:21;100627.94;;;15.19;98.53
12172;BME280;6149;52.418;13.668;2023-05-23T05:47:52;100630.59;;;15.19;100.00
12172;BME280;6149;52.418;13.668;2023-05-23T05:50:22;100638.69;;;15.17;100.00
12172;BME280;6149;52.418;13.668;2023-05-23T05:52:51;100644.97;;;15.16;100.00
12172;BME280;6149;52.418;13.668;2023-05-23T05:55:19;100642.31;;;15.16;100.00
12172;BME280;6149;52.418;13.668;2023-05-23T05:57:51;100640.63;;;15.15;100.00
12172;BME280;6149;52.418;13.668;2023-05-23T06:00:18;100653.94;;;15.15;100.00
12172;BME280;6149;52.418;13.668;2023-05-23T06:02:46;100653.94;;;15.15;100.00
12172;BME280;6149;52.418;13.668;2023-05-23T06:05:16;100652.13;;;15.16;100.00
12172;BME280;6149;52.418;13.668;2023-05-23T06:07:42;100662.66;;;15.17;100.00
12172;BME280;6149;52.418;13.668;2023-05-23T06:10:09;100651.06;;;15.18;100.00
12172;BME280;6149;52.418;13.668;2023-05-23T06:12:38;100648.28;;;15.20;100.00
12172;BME280;6149;52.418;13.668;2023-05-23T06:15:07;100639.44;;;15.19;100.00
12172;BME280;6149;52.418;13.668;2023-05-23T06:17:34;100642.00;;;15.21;100.00
12172;BME280;6149;52.418;13.668;2023-05-23T06:20:03;100642.59;;;15.24;100.00
12172;BME280;6149;52.418;13.668;2023-05-23T06:22:32;100625.66;;;15.25;100.00
12172;BME280;6149;52.418;13.668;2023-05-23T06:24:58;100631.84;;;15.26;100.00
12172;BME280;6149;52.418;13.668;2023-05-23T06:27:26;100634.69;;;15.35;100.00
12172;BME280;6149;52.418;13.668;2023-05-23T06:29:54;100635.88;;;15.31;100.00
12172;BME280;6149;52.418;13.668;2023-05-23T06:32:26;100629.28;;;15.24;100.00
12172;BME280;6149;52.418;13.668;2023-05-23T06:34:53;100633.75;;;15.24;100.00
12172;BME280;6149;52.418;13.668;2023-05-23T06:37:21;100623.34;;;15.21;100.00
12172;BME280;6149;52.418;13.668;2023-05-23T06:39:50;100617.53;;;15.27;100.00
12172;BME280;6149;52.418;13.668;2023-05-23T06:42:17;100614.78;;;15.28;100.00
12172;BME280;6149;52.418;13.668;2023-05-23T06:44:45;100606.16;;;15.25;100.00
12172;BME280;6149;52.418;13.668;2023-05-23T06:47:12;100615.94;;;15.24;100.00
12172;BME280;6149;52.418;13.668;2023-05-23T06:49:40;100623.84;;;15.26;100.00
12172;BME280;6149;52.418;13.668;2023-05-23T06:52:07;100620.84;;;15.30;100.00
12172;BME280;6149;52.418;13.668;2023-05-23T06:54:35;100626.59;;;15.37;100.00
12172;BME280;6149;52.418;13.668;2023-05-23T06:57:03;100629.78;;;15.42;100.00
12172;BME280;6149;52.418;13.668;2023-05-23T06:59:31;100636.59;;;15.46;100.00
12172;BME280;6149;52.418;13.668;2023-05-23T07:02:00;100637.31;;;15.48;100.00
12172;BME280;6149;52.418;13.668;2023-05-23T07:04:29;100630.69;;;15.54;100.00
12172;BME280;6149;52.418;13.668;2023-05-23T07:06:57;100628.44;;;15.60;100.00
12172;BME280;6149;52.418;13.668;2023-05-23T07:09:25;100631.41;;;15.68;100.00
12172;BME280;6149;52.418;13.668;2023-05-23T07:11:52;100632.66;;;15.76;98.68
12172;BME280;6149;52.418;13.668;2023-05-23T07:14:21;100631.97;;;15.85;96.65
12172;BME280;6149;52.418;13.668;2023-05-23T07:16:47;100631.75;;;15.99;96.42
12172;BME280;6149;52.418;13.668;2023-05-23T07:19:17;100634.38;;;16.12;94.09
12172;BME280;6149;52.418;13.668;2023-05-23T07:24:34;100628.00;;;16.36;92.41
12172;BME280;6149;52.418;13.668;2023-05-23T07:27:02;100625.25;;;16.49;93.43
12172;BME280;6149;52.418;13.668;2023-05-23T07:29:30;100630.13;;;16.55;89.38
12172;BME280;6149;52.418;13.668;2023-05-23T07:31:59;100633.69;;;16.67;87.04
12172;BME280;6149;52.418;13.668;2023-05-23T07:34:27;100629.81;;;16.82;89.43
12172;BME280;6149;52.418;13.668;2023-05-23T07:36:55;100628.97;;;16.93;86.89
12172;BME280;6149;52.418;13.668;2023-05-23T07:39:23;100626.19;;;17.06;88.30
12172;BME280;6149;52.418;13.668;2023-05-23T07:41:51;100635.13;;;17.27;86.85
12172;BME280;6149;52.418;13.668;2023-05-23T07:44:20;100632.66;;;17.46;83.95
12172;BME280;6149;52.418;13.668;2023-05-23T07:46:52;100631.06;;;17.66;83.12
12172;BME280;6149;52.418;13.668;2023-05-23T07:49:19;100628.00;;;17.82;77.65
12172;BME280;6149;52.418;13.668;2023-05-23T07:51:49;100624.53;;;17.91;75.06
12172;BME280;6149;52.418;13.668;2023-05-23T07:54:19;100633.97;;;18.06;76.48
12172;BME280;6149;52.418;13.668;2023-05-23T07:56:48;100619.81;;;18.15;73.26
12172;BME280;6149;52.418;13.668;2023-05-23T07:59:20;100622.78;;;18.22;73.53
12172;BME280;6149;52.418;13.668;2023-05-23T08:01:48;100619.47;;;18.29;75.56
12172;BME280;6149;52.418;13.668;2023-05-23T08:04:16;100622.84;;;18.31;75.51
12172;BME280;6149;52.418;13.668;2023-05-23T08:06:42;100625.88;;;18.38;75.49
12172;BME280;6149;52.418;13.668;2023-05-23T08:09:11;100626.47;;;18.62;75.09
12172;BME280;6149;52.418;13.668;2023-05-23T08:11:38;100637.88;;;18.85;69.58
12172;BME280;6149;52.418;13.668;2023-05-23T08:14:07;100634.06;;;19.18;71.28
12172;BME280;6149;52.418;13.668;2023-05-23T08:16:36;100638.50;;;19.48;66.59
12172;BME280;6149;52.418;13.668;2023-05-23T08:19:03;100635.31;;;19.74;64.63
12172;BME280;6149;52.418;13.668;2023-05-23T08:21:29;100645.81;;;19.96;64.78
12172;BME280;6149;52.418;13.668;2023-05-23T08:23:56;100645.97;;;20.04;63.97
12172;BME280;6149;52.418;13.668;2023-05-23T08:26:23;100653.44;;;20.10;60.57
12172;BME280;6149;52.418;13.668;2023-05-23T08:28:51;100651.31;;;20.23;63.62
12172;BME280;6149;52.418;13.668;2023-05-23T08:31:22;100647.50;;;20.35;61.12
12172;BME280;6149;52.418;13.668;2023-05-23T08:33:50;100642.25;;;20.53;60.06
12172;BME280;6149;52.418;13.668;2023-05-23T08:36:19;100646.09;;;20.88;62.40
12172;BME280;6149;52.418;13.668;2023-05-23T08:38:49;100644.53;;;20.95;59.11
12172;BME280;6149;52.418;13.668;2023-05-23T08:41:23;100652.28;;;21.08;57.89
12172;BME280;6149;52.418;13.668;2023-05-23T08:43:51;100653.19;;;21.26;56.64
12172;BME280;6149;52.418;13.668;2023-05-23T08:46:22;100650.88;;;21.41;57.89
12172;BME280;6149;52.418;13.668;2023-05-23T08:48:52;100665.28;;;21.49;56.29
12172;BME280;6149;52.418;13.668;2023-05-23T08:51:21;100661.66;;;21.58;53.91
12172;BME280;6149;52.418;13.668;2023-05-23T08:53:52;100673.63;;;21.74;53.42
12172;BME280;6149;52.418;13.668;2023-05-23T08:56:24;100673.81;;;21.90;54.97
12172;BME280;6149;52.418;13.668;2023-05-23T08:58:52;100666.31;;;21.84;50.04
12172;BME280;6149;52.418;13.668;2023-05-23T09:01:23;100676.69;;;21.96;51.49
12172;BME280;6149;52.418;13.668;2023-05-23T09:03:51;100672.22;;;22.15;51.73
12172;BME280;6149;52.418;13.668;2023-05-23T09:06:20;100678.53;;;22.23;50.91
12172;BME280;6149;52.418;13.668;2023-05-23T09:08:48;100677.72;;;22.49;49.36
12172;BME280;6149;52.418;13.668;2023-05-23T09:11:15;100673.34;;;22.74;47.90
12172;BME280;6149;52.418;13.668;2023-05-23T09:13:42;100678.28;;;22.78;48.22
12172;BME280;6149;52.418;13.668;2023-05-23T09:16:09;100678.97;;;22.80;49.49
12172;BME280;6149;52.418;13.668;2023-05-23T09:18:40;100688.44;;;22.84;49.03
12172;BME280;6149;52.418;13.668;2023-05-23T09:21:09;100684.88;;;22.58;48.50
12172;BME280;6149;52.418;13.668;2023-05-23T09:23:37;100687.66;;;22.74;50.44
12172;BME280;6149;52.418;13.668;2023-05-23T09:26:07;100685.69;;;23.02;48.88
12172;BME280;6149;52.418;13.668;2023-05-23T09:28:37;100683.75;;;23.20;47.83
12172;BME280;6149;52.418;13.668;2023-05-23T09:31:05;100692.88;;;23.53;48.94
12172;BME280;6149;52.418;13.668;2023-05-23T09:33:41;100689.22;;;23.71;47.21
12172;BME280;6149;52.418;13.668;2023-05-23T09:36:09;100688.25;;;23.88;46.64
12172;BME280;6149;52.418;13.668;2023-05-23T09:38:37;100683.56;;;24.06;46.89
12172;BME280;6149;52.418;13.668;2023-05-23T09:41:05;100689.31;;;24.19;47.53
12172;BME280;6149;52.418;13.668;2023-05-23T09:43:32;100690.47;;;24.17;46.67
12172;BME280;6149;52.418;13.668;2023-05-23T09:46:00;100681.09;;;24.37;47.92
12172;BME280;6149;52.418;13.668;2023-05-23T09:48:33;100691.38;;;24.58;46.33
12172;BME280;6149;52.418;13.668;2023-05-23T09:51:08;100695.09;;;24.57;45.74
12172;BME280;6149;52.418;13.668;2023-05-23T09:53:35;100689.00;;;24.63;45.93
12172;BME280;6149;52.418;13.668;2023-05-23T09:56:05;100684.09;;;24.83;47.15
12172;BME280;6149;52.418;13.668;2023-05-23T09:58:34;100687.66;;;24.83;47.14
12172;BME280;6149;52.418;13.668;2023-05-23T10:01:06;100682.25;;;24.83;46.06
12172;BME280;6149;52.418;13.668;2023-05-23T10:03:39;100695.94;;;24.74;48.29
12172;BME280;6149;52.418;13.668;2023-05-23T10:06:16;100687.16;;;24.80;47.68
12172;BME280;6149;52.418;13.668;2023-05-23T10:08:53;100686.34;;;24.47;49.27
12172;BME280;6149;52.418;13.668;2023-05-23T10:14:49;100686.22;;;23.90;52.30
12172;BME280;6149;52.418;13.668;2023-05-23T10:17:26;100687.56;;;23.86;52.41
12172;BME280;6149;52.418;13.668;2023-05-23T10:20:03;100683.16;;;23.77;53.06
12172;BME280;6149;52.418;13.668;2023-05-23T10:22:35;100683.16;;;23.69;52.70
12172;BME280;6149;52.418;13.668;2023-05-23T10:25:05;100673.69;;;23.64;53.78
12172;BME280;6149;52.418;13.668;2023-05-23T10:27:32;100674.09;;;23.94;52.85
12172;BME280;6149;52.418;13.668;2023-05-23T10:29:59;100681.81;;;23.81;52.43
12172;BME280;6149;52.418;13.668;2023-05-23T10:32:28;100675.41;;;23.40;52.05
12172;BME280;6149;52.418;13.668;2023-05-23T10:35:00;100681.91;;;23.21;53.11
12172;BME280;6149;52.418;13.668;2023-05-23T10:37:44;100678.94;;;22.98;55.03
12172;BME280;6149;52.418;13.668;2023-05-23T10:40:23;100678.19;;;22.88;56.34
12172;BME280;6149;52.418;13.668;2023-05-23T10:43:02;100686.66;;;22.93;54.93
12172;BME280;6149;52.418;13.668;2023-05-23T10:45:38;100690.88;;;22.52;56.25
12172;BME280;6149;52.418;13.668;2023-05-23T10:48:20;100676.19;;;22.46;58.82
12172;BME280;6149;52.418;13.668;2023-05-23T10:51:04;100681.03;;;22.43;59.14
12172;BME280;6149;52.418;13.668;2023-05-23T10:53:34;100687.03;;;22.37;60.49
12172;BME280;6149;52.418;13.668;2023-05-23T10:56:04;100683.59;;;22.26;61.00
12172;BME280;6149;52.418;13.668;2023-05-23T10:58:32;100690.06;;;22.16;62.94
12172;BME280;6149;52.418;13.668;2023-05-23T11:01:00;100687.44;;;22.24;63.77
12172;BME280;6149;52.418;13.668;2023-05-23T11:03:35;100693.59;;;22.34;62.53
12172;BME280;6149;52.418;13.668;2023-05-23T11:06:04;100685.97;;;22.29;63.29
12172;BME280;6149;52.418;13.668;2023-05-23T11:08:39;100680.34;;;22.41;63.50
12172;BME280;6149;52.418;13.668;2023-05-23T11:11:10;100702.28;;;22.46;64.39
12172;BME280;6149;52.418;13.668;2023-05-23T11:16:58;100697.16;;;22.17;66.06
12172;BME280;6149;52.418;13.668;2023-05-23T11:19:26;100702.38;;;21.91;70.88
12172;BME280;6149;52.418;13.668;2023-05-23T11:21:56;100704.78;;;21.76;72.62
12172;BME280;6149;52.418;13.668;2023-05-23T11:24:47;100708.91;;;21.71;73.62
12172;BME280;6149;52.418;13.668;2023-05-23T11:27:17;100698.88;;;21.63;74.53
12172;BME280;6149;52.418;13.668;2023-05-23T11:30:02;100697.63;;;21.57;75.16
12172;BME280;6149;52.418;13.668;2023-05-23T11:32:30;100691.97;;;21.60;75.93
12172;BME280;6149;52.418;13.668;2023-05-23T11:35:00;100697.09;;;21.54;75.21
12172;BME280;6149;52.418;13.668;2023-05-23T11:37:29;100692.97;;;21.59;75.80
12172;BME280;6149;52.418;13.668;2023-05-23T11:40:27;100697.69;;;21.75;75.87
12172;BME280;6149;52.418;13.668;2023-05-23T11:42:56;100691.84;;;21.97;74.54
12172;BME280;6149;52.418;13.668;2023-05-23T11:45:24;100695.53;;;22.06;73.84
12172;BME280;6149;52.418;13.668;2023-05-23T11:47:53;100701.25;;;21.93;74.58
12172;BME280;6149;52.418;13.668;2023-05-23T11:50:20;100699.19;;;21.87;74.80
12172;BME280;6149;52.418;13.668;2023-05-23T11:52:53;100702.78;;;21.78;74.59
12172;BME280;6149;52.418;13.668;2023-05-23T11:55:25;100703.72;;;21.59;75.14
12172;BME280;6149;52.418;13.668;2023-05-23T11:57:55;100707.84;;;21.54;75.75
12172;BME280;6149;52.418;13.668;2023-05-23T12:00:23;100710.63;;;21.44;75.77
12172;BME280;6149;52.418;13.668;2023-05-23T12:02:50;100718.16;;;21.31;77.62
12172;BME280;6149;52.418;13.668;2023-05-23T12:05:18;100715.16;;;21.44;76.93
12172;BME280;6149;52.418;13.668;2023-05-23T12:07:48;100731.28;;;21.44;75.66
12172;BME280;6149;52.418;13.668;2023-05-23T12:10:17;100720.97;;;21.39;76.06
12172;BME280;6149;52.418;13.668;2023-05-23T12:12:50;100714.63;;;21.30;76.86
12172;BME280;6149;52.418;13.668;2023-05-23T12:15:17;100728.66;;;21.24;77.83
12172;BME280;6149;52.418;13.668;2023-05-23T12:17:45;100732.94;;;21.08;77.70
12172;BME280;6149;52.418;13.668;2023-05-23T12:20:12;100740.50;;;20.85;78.67
12172;BME280;6149;52.418;13.668;2023-05-23T12:22:39;100743.34;;;20.64;79.49
12172;BME280;6149;52.418;13.668;2023-05-23T12:25:08;100743.94;;;20.58;80.66
12172;BME280;6149;52.418;13.668;2023-05-23T12:27:39;100740.53;;;20.56;80.61
12172;BME280;6149;52.418;13.668;2023-05-23T12:30:12;100744.78;;;20.58;80.92
12172;BME280;6149;52.418;13.668;2023-05-23T12:32:41;100755.66;;;20.66;80.55
12172;BME280;6149;52.418;13.668;2023-05-23T12:35:11;100744.78;;;20.68;80.29
12172;BME280;6149;52.418;13.668;2023-05-23T12:37:38;100750.28;;;20.57;80.51
12172;BME280;6149;52.418;13.668;2023-05-23T12:40:12;100745.34;;;20.62;80.83
12172;BME280;6149;52.418;13.668;2023-05-23T12:42:48;100746.34;;;20.71;79.86
12172;BME280;6149;52.418;13.668;2023-05-23T12:45:21;100748.44;;;20.77;80.29
12172;BME280;6149;52.418;13.668;2023-05-23T12:47:49;100753.50;;;20.89;78.99
12172;BME280;6149;52.418;13.668;2023-05-23T12:50:16;100738.34;;;21.08;78.91
12172;BME280;6149;52.418;13.668;2023-05-23T12:52:44;100734.22;;;21.13;77.86
12172;BME280;6149;52.418;13.668;2023-05-23T12:55:12;100734.50;;;21.10;79.77
12172;BME280;6149;52.418;13.668;2023-05-23T12:57:39;100743.53;;;21.28;77.37
12172;BME280;6149;52.418;13.668;2023-05-23T13:00:07;100740.41;;;21.33;75.99
12172;BME280;6149;52.418;13.668;2023-05-23T13:02:38;100745.50;;;21.26;77.72
12172;BME280;6149;52.418;13.668;2023-05-23T13:05:05;100748.91;;;21.19;77.59
12172;BME280;6149;52.418;13.668;2023-05-23T13:07:32;100754.63;;;20.96;78.32